Terminal Aerodrome Forecast
Issued by NWS Jacksonville, FL

Home | Current Version | Previous Version | Text Only | Print | Product List | Glossary On
Versions: 1 2 3 4 5 6 7 8 9 10 11 12 13 14 15 16 17 18 19 20 21 22
000
FTUS42 KJAX 232200 AAC
TAFJAX
TAF AMD
KJAX 232232Z 2323/2418 04012G20KT P6SM VCSH SCT025 BKN045
     FM240100 02007KT P6SM SCT020 SCT040 BKN080
     FM240500 03008KT P6SM BKN010 OVC040
     FM241700 02010KT P6SM SCT015 BKN025=

USA.gov is the U.S. government's official web portal to all federal, state and local government web resources and services.